createdAt,value
2022-10-17T00:01:34.572Z,101431.78
2022-10-17T00:04:37.535Z,101430.84
2022-10-17T00:07:39.980Z,101438.03
2022-10-17T00:10:42.819Z,101429.94
2022-10-17T00:13:48.064Z,101428.12
2022-10-17T00:16:50.816Z,101422.72
2022-10-17T00:19:53.342Z,101418.25
2022-10-17T00:22:57.040Z,101409.25
2022-10-17T00:26:05.131Z,101399.41
2022-10-17T00:29:07.897Z,101397.62
2022-10-17T00:32:10.414Z,101404.81
2022-10-17T00:35:13.212Z,101415.59
2022-10-17T00:38:15.733Z,101421.00
2022-10-17T00:41:21.600Z,101421.00
2022-10-17T00:44:30.210Z,101430.88
2022-10-17T00:47:33.711Z,101435.34
2022-10-17T00:50:37.142Z,101439.81
2022-10-17T00:53:40.144Z,101442.50
2022-10-17T00:56:44.065Z,101446.06
2022-10-17T00:59:50.909Z,101453.22
2022-10-17T01:02:53.913Z,101457.69
2022-10-17T01:05:57.493Z,101453.16
2022-10-17T01:09:00.095Z,101454.06
2022-10-17T01:12:05.431Z,101445.03
2022-10-17T01:15:14.473Z,101438.75
2022-10-17T01:18:28.012Z,101435.12
2022-10-17T01:21:35.936Z,101428.81
2022-10-17T01:24:53.804Z,101435.09
2022-10-17T01:28:03.152Z,101429.69
2022-10-17T01:31:16.071Z,101435.00
2022-10-17T01:34:25.915Z,101438.53
2022-10-17T01:37:33.482Z,101443.91
2022-10-17T01:40:50.526Z,101441.19
2022-10-17T01:43:57.285Z,101443.81
2022-10-17T01:47:09.140Z,101447.41
2022-10-17T01:50:15.833Z,101452.75
2022-10-17T01:53:25.615Z,101443.78
2022-10-17T01:56:30.594Z,101447.37
2022-10-17T01:59:41.983Z,101441.06
2022-10-17T02:02:47.126Z,101433.00
2022-10-17T02:05:51.675Z,101440.19
2022-10-17T02:08:54.194Z,101447.31
2022-10-17T02:12:20.124Z,101444.59
2022-10-17T02:15:33.907Z,101454.44
2022-10-17T02:18:54.970Z,101453.47
2022-10-17T02:22:06.104Z,101449.88
2022-10-17T02:25:24.213Z,101452.50
2022-10-17T02:28:40.393Z,101440.81
2022-10-17T02:32:00.640Z,101449.75
2022-10-17T02:35:06.051Z,101454.22
2022-10-17T02:38:09.810Z,101458.69
2022-10-17T02:41:15.108Z,101458.66
2022-10-17T02:44:18.346Z,101457.75
2022-10-17T02:47:34.713Z,101456.84
2022-10-17T02:51:03.970Z,101459.53
2022-10-17T02:54:21.681Z,101462.22
2022-10-17T02:57:44.633Z,101457.75
2022-10-17T03:00:49.279Z,101459.50
2022-10-17T03:03:52.260Z,101456.84
2022-10-17T03:06:54.744Z,101455.06
2022-10-17T03:09:58.679Z,101453.28
2022-10-17T03:13:01.410Z,101461.34
2022-10-17T03:16:06.380Z,101456.87
2022-10-17T03:19:09.286Z,101459.53
2022-10-17T03:22:12.175Z,101456.87
2022-10-17T03:25:15.099Z,101464.94
2022-10-17T03:28:18.652Z,101466.75
2022-10-17T03:31:21.916Z,101473.87
2022-10-17T03:34:25.055Z,101483.72
2022-10-17T03:37:28.309Z,101492.66
2022-10-17T03:40:31.732Z,101490.87
2022-10-17T03:43:34.274Z,101491.75
2022-10-17T03:46:37.072Z,101489.88
2022-10-17T03:49:39.828Z,101497.00
2022-10-17T03:52:46.842Z,101476.28
2022-10-17T03:55:49.365Z,101502.34
2022-10-17T03:58:53.806Z,101501.44
2022-10-17T04:01:56.828Z,101509.44
2022-10-17T04:04:59.732Z,101504.03
2022-10-17T04:08:04.684Z,101516.56
2022-10-17T04:11:13.869Z,101516.56
2022-10-17T04:14:16.505Z,101514.78
2022-10-17T04:17:19.358Z,101521.03
2022-10-17T04:20:22.250Z,101519.25
2022-10-17T04:23:26.607Z,101530.84
2022-10-17T04:26:31.910Z,101529.03
2022-10-17T04:29:34.660Z,101533.50
2022-10-17T04:32:38.861Z,101530.78
2022-10-17T04:35:42.142Z,101538.81
2022-10-17T04:38:45.144Z,101544.19
2022-10-17T04:41:48.208Z,101548.66
2022-10-17T04:44:51.266Z,101544.19
2022-10-17T04:47:54.254Z,101553.09
2022-10-17T04:51:01.980Z,101549.44
2022-10-17T04:54:05.329Z,101546.72
2022-10-17T04:57:08.279Z,101544.91
2022-10-17T05:00:11.759Z,101549.44
2022-10-17T05:03:15.946Z,101546.72
2022-10-17T05:06:21.470Z,101543.13
2022-10-17T05:09:25.780Z,101552.09
2022-10-17T05:12:29.041Z,101564.63
2022-10-17T05:15:32.259Z,101554.81
2022-10-17T05:18:35.169Z,101550.34
2022-10-17T05:21:37.975Z,101559.28
2022-10-17T05:24:41.235Z,101562.00
2022-10-17T05:27:44.245Z,101563.00
2022-10-17T05:30:48.737Z,101570.22
2022-10-17T05:33:52.072Z,101570.28
2022-10-17T05:36:54.879Z,101581.91
2022-10-17T05:39:58.238Z,101591.75
2022-10-17T05:43:01.482Z,101590.03
2022-10-17T05:46:07.684Z,101599.06
2022-10-17T05:49:19.761Z,101596.31
2022-10-17T05:52:35.013Z,101598.25
2022-10-17T05:55:38.272Z,101607.34
2022-10-17T05:58:50.439Z,101612.81
2022-10-17T06:01:56.401Z,101618.25
2022-10-17T06:04:59.194Z,101624.59
2022-10-17T06:08:02.785Z,101613.97
2022-10-17T06:11:09.202Z,101621.22
2022-10-17T06:14:13.016Z,101624.94
2022-10-17T06:17:16.518Z,101637.72
2022-10-17T06:20:19.166Z,101632.53
2022-10-17T06:23:21.992Z,101635.56
2022-10-17T06:26:24.549Z,101631.44
2022-10-17T06:29:27.522Z,101637.88
2022-10-17T06:32:30.758Z,101633.25
2022-10-17T06:35:33.900Z,101636.06
2022-10-17T06:38:36.725Z,101631.50
2022-10-17T06:41:44.602Z,101628.94
2022-10-17T06:44:47.390Z,101640.09
2022-10-17T06:47:54.347Z,101632.88
2022-10-17T06:51:02.057Z,101637.22
2022-10-17T06:54:05.085Z,101644.41
2022-10-17T06:57:08.117Z,101652.94
2022-10-17T07:00:12.108Z,101648.19
2022-10-17T07:03:15.047Z,101661.09
2022-10-17T07:06:19.191Z,101658.13
2022-10-17T07:09:22.973Z,101662.56
2022-10-17T07:12:26.231Z,101664.53
2022-10-17T07:15:29.004Z,101667.63
2022-10-17T07:18:31.927Z,101669.78
2022-10-17T07:21:36.724Z,101668.81
2022-10-17T07:24:42.326Z,101663.19
2022-10-17T07:27:49.091Z,101677.22
2022-10-17T07:30:53.807Z,101671.81
2022-10-17T07:34:00.377Z,101672.22
2022-10-17T07:37:04.039Z,101671.94
2022-10-17T07:40:08.521Z,101674.03
2022-10-17T07:43:12.721Z,101672.47
2022-10-17T07:46:15.589Z,101673.69
2022-10-17T07:49:20.243Z,101673.69
2022-10-17T07:52:23.338Z,101672.91
2022-10-17T07:55:26.114Z,101672.88
2022-10-17T07:58:29.635Z,101682.69
2022-10-17T08:01:33.027Z,101674.44
2022-10-17T08:04:36.568Z,101678.91
2022-10-17T08:07:40.566Z,101681.34
2022-10-17T08:10:43.639Z,101671.81
2022-10-17T08:13:46.186Z,101668.06
2022-10-17T08:16:49.052Z,101670.44
2022-10-17T08:19:52.020Z,101667.94
2022-10-17T08:23:03.914Z,101674.78
2022-10-17T08:26:10.878Z,101671.22
2022-10-17T08:29:15.429Z,101668.59
2022-10-17T08:32:17.951Z,101664.63
2022-10-17T08:35:22.347Z,101673.31
2022-10-17T08:38:27.806Z,101673.03
2022-10-17T08:41:45.596Z,101673.91
2022-10-17T08:44:59.613Z,101667.22
2022-10-17T08:48:06.231Z,101667.41
2022-10-17T08:51:22.830Z,101671.34
2022-10-17T08:54:40.588Z,101670.16
2022-10-17T08:57:43.871Z,101656.44
2022-10-17T09:01:12.696Z,101667.00
2022-10-17T09:04:35.158Z,101657.22
2022-10-17T09:07:58.161Z,101664.69
2022-10-17T09:11:03.013Z,101671.19
2022-10-17T09:14:17.851Z,101658.38
2022-10-17T09:17:37.997Z,101660.59
2022-10-17T09:20:45.715Z,101668.69
2022-10-17T09:23:59.700Z,101671.47
2022-10-17T09:27:38.959Z,101681.88
2022-10-17T09:30:46.449Z,101673.03
2022-10-17T09:33:55.150Z,101674.56
2022-10-17T09:36:59.564Z,101668.91
2022-10-17T09:40:03.060Z,101671.03
2022-10-17T09:43:07.204Z,101668.03
2022-10-17T09:46:34.433Z,101675.31
2022-10-17T09:49:45.441Z,101673.66
2022-10-17T09:52:50.233Z,101684.34
2022-10-17T09:55:56.218Z,101678.41
2022-10-17T09:58:59.370Z,101683.00
2022-10-17T10:02:13.962Z,101679.44
2022-10-17T10:05:19.117Z,101685.50
2022-10-17T10:08:21.769Z,101670.13
2022-10-17T10:11:57.580Z,101670.75
2022-10-17T10:15:00.638Z,101670.50
2022-10-17T10:18:04.035Z,101658.72
2022-10-17T10:21:09.535Z,101668.56
2022-10-17T10:24:13.612Z,101664.13
2022-10-17T10:27:17.758Z,101658.44
2022-10-17T10:30:26.139Z,101652.78
2022-10-17T10:33:30.316Z,101650.03
2022-10-17T10:36:46.916Z,101650.31
2022-10-17T10:39:58.760Z,101656.38
2022-10-17T10:43:05.311Z,101647.59
2022-10-17T10:46:19.737Z,101649.38
2022-10-17T10:49:32.804Z,101654.00
2022-10-17T10:52:42.962Z,101650.09
2022-10-17T10:55:51.092Z,101647.78
2022-10-17T10:59:08.877Z,101638.41
2022-10-17T11:02:20.255Z,101640.81
2022-10-17T11:05:40.383Z,101643.91
2022-10-17T11:08:48.020Z,101632.97
2022-10-17T11:11:58.817Z,101640.37
2022-10-17T11:24:59.873Z,101627.38
2022-10-17T11:28:05.274Z,101625.63
2022-10-17T11:31:16.114Z,101617.91
2022-10-17T11:34:27.247Z,101620.09
2022-10-17T11:37:34.393Z,101600.84
2022-10-17T11:40:41.632Z,101615.38
2022-10-17T11:43:55.418Z,101606.25
2022-10-17T11:47:01.625Z,101604.34
2022-10-17T11:54:24.508Z,101597.19
2022-10-17T11:57:43.899Z,101602.69
2022-10-17T12:01:02.021Z,101594.00
2022-10-17T12:04:22.473Z,101597.56
2022-10-17T12:07:45.557Z,101589.34
2022-10-17T12:11:07.602Z,101592.31
2022-10-17T12:14:38.036Z,101585.87
2022-10-17T12:17:45.243Z,101587.56
2022-10-17T12:20:59.422Z,101589.00
2022-10-17T12:24:02.359Z,101584.81
2022-10-17T12:27:32.755Z,101588.09
2022-10-17T12:30:37.590Z,101580.16
2022-10-17T12:33:45.928Z,101582.56
2022-10-17T12:36:48.915Z,101573.13
2022-10-17T12:39:51.479Z,101561.38
2022-10-17T12:42:54.358Z,101574.09
2022-10-17T12:45:58.394Z,101550.22
2022-10-17T12:49:05.188Z,101564.72
2022-10-17T12:52:20.007Z,101546.84
2022-10-17T12:55:25.947Z,101552.84
2022-10-17T12:58:29.361Z,101558.00
2022-10-17T13:01:33.418Z,101557.31
2022-10-17T13:04:36.826Z,101554.00
2022-10-17T13:07:41.814Z,101551.59
2022-10-17T13:10:48.968Z,101564.00
2022-10-17T13:13:56.437Z,101547.59
2022-10-17T13:20:23.576Z,101545.34
2022-10-17T13:23:36.475Z,101551.38
2022-10-17T13:26:45.308Z,101543.28
2022-10-17T13:29:47.873Z,101551.31
2022-10-17T13:32:50.674Z,101547.72
2022-10-17T13:36:00.315Z,101536.59
2022-10-17T13:39:13.635Z,101541.97
2022-10-17T13:42:27.965Z,101542.91
2022-10-17T13:45:33.569Z,101544.81
2022-10-17T13:48:38.198Z,101544.16
2022-10-17T13:51:50.103Z,101514.47
2022-10-17T13:54:54.800Z,101541.41
2022-10-17T13:58:16.558Z,101547.50
2022-10-17T14:01:20.829Z,101551.44
2022-10-17T14:04:23.685Z,101557.88
2022-10-17T14:08:09.181Z,101553.75
2022-10-17T14:11:22.051Z,101561.56
2022-10-17T14:14:29.042Z,101554.41
2022-10-17T14:17:34.010Z,101552.66
2022-10-17T14:24:32.987Z,101553.00
2022-10-17T14:27:42.522Z,101556.69
2022-10-17T14:30:57.862Z,101553.03
2022-10-17T14:34:02.226Z,101555.87
2022-10-17T14:37:10.409Z,101548.97
2022-10-17T14:40:23.474Z,101548.56
2022-10-17T14:43:29.610Z,101551.25
2022-10-17T14:46:32.714Z,101552.88
2022-10-17T14:49:38.472Z,101556.56
2022-10-17T14:52:41.189Z,101550.81
2022-10-17T14:55:56.174Z,101545.34
2022-10-17T14:58:58.748Z,101551.78
2022-10-17T15:02:02.064Z,101552.72
2022-10-17T15:05:07.320Z,101557.88
2022-10-17T15:08:22.919Z,101548.34
2022-10-17T15:11:25.837Z,101556.38
2022-10-17T15:14:29.007Z,101549.56
2022-10-17T15:17:31.625Z,101552.91
2022-10-17T15:20:34.971Z,101555.34
2022-10-17T15:23:37.445Z,101555.87
2022-10-17T15:26:40.274Z,101556.09
2022-10-17T15:29:42.903Z,101553.44
2022-10-17T15:32:45.769Z,101549.47
2022-10-17T15:35:48.318Z,101554.34
2022-10-17T15:38:53.513Z,101557.47
2022-10-17T15:41:56.053Z,101563.78
2022-10-17T15:44:58.965Z,101561.72
2022-10-17T15:48:06.200Z,101559.97
2022-10-17T15:51:10.015Z,101569.94
2022-10-17T15:57:22.971Z,101576.66
2022-10-17T16:00:26.477Z,101582.56
2022-10-17T16:03:30.345Z,101581.94
2022-10-17T16:06:32.888Z,101577.66
2022-10-17T16:09:37.404Z,101578.38
2022-10-17T16:12:42.821Z,101584.28
2022-10-17T16:15:46.105Z,101583.94
2022-10-17T16:18:48.973Z,101583.94
2022-10-17T16:21:51.835Z,101584.34
2022-10-17T16:24:58.831Z,101589.19
2022-10-17T16:28:01.795Z,101593.13
2022-10-17T16:31:04.349Z,101600.34
2022-10-17T16:34:08.925Z,101597.25
2022-10-17T16:37:11.401Z,101604.59
2022-10-17T16:40:15.350Z,101607.66
2022-10-17T16:43:17.788Z,101606.84
2022-10-17T16:46:21.443Z,101612.44
2022-10-17T16:49:23.905Z,101607.16
2022-10-17T16:52:26.957Z,101610.78
2022-10-17T16:55:29.461Z,101605.56
2022-10-17T16:58:32.444Z,101609.28
2022-10-17T17:01:34.898Z,101606.56
2022-10-17T17:04:37.684Z,101607.41
2022-10-17T17:07:40.211Z,101603.84
2022-10-17T17:10:46.687Z,101618.44
2022-10-17T17:13:49.342Z,101606.69
2022-10-17T17:16:52.168Z,101608.47
2022-10-17T17:19:55.721Z,101611.16
2022-10-17T17:22:58.455Z,101610.28
2022-10-17T17:26:03.452Z,101613.09
2022-10-17T17:29:09.707Z,101615.97
2022-10-17T17:32:13.592Z,101619.66
2022-10-17T17:35:16.456Z,101623.34
2022-10-17T17:38:19.181Z,101611.53
2022-10-17T17:41:22.237Z,101617.91
2022-10-17T17:44:24.701Z,101618.84
2022-10-17T17:47:29.093Z,101621.59
2022-10-17T17:50:32.956Z,101613.50
2022-10-17T17:53:35.927Z,101621.75
2022-10-17T17:56:38.438Z,101621.91
2022-10-17T17:59:41.563Z,101623.87
2022-10-17T18:02:44.563Z,101619.47
2022-10-17T18:05:47.350Z,101618.59
2022-10-17T18:08:52.189Z,101622.25
2022-10-17T18:11:55.108Z,101624.22
2022-10-17T18:14:57.747Z,101620.59
2022-10-17T18:18:00.564Z,101625.19
2022-10-17T18:21:03.002Z,101613.47
2022-10-17T18:24:07.921Z,101617.13
2022-10-17T18:27:12.787Z,101626.22
2022-10-17T18:30:16.472Z,101631.75
2022-10-17T18:33:19.193Z,101618.31
2022-10-17T18:36:22.544Z,101618.34
2022-10-17T18:39:24.985Z,101621.13
2022-10-17T18:42:28.029Z,101627.50
2022-10-17T18:45:30.620Z,101633.06
2022-10-17T18:48:34.088Z,101630.41
2022-10-17T18:51:36.884Z,101637.69
2022-10-17T18:54:39.604Z,101633.19
2022-10-17T18:57:42.487Z,101620.69
2022-10-17T19:00:46.114Z,101629.81
2022-10-17T19:03:50.482Z,101625.31
2022-10-17T19:06:53.232Z,101635.31
2022-10-17T19:09:55.689Z,101631.72
2022-10-17T19:12:58.777Z,101632.69
2022-10-17T19:16:08.242Z,101646.25
2022-10-17T19:19:15.361Z,101637.25
2022-10-17T19:22:17.979Z,101634.56
2022-10-17T19:25:21.041Z,101630.94
2022-10-17T19:28:23.600Z,101632.75
2022-10-17T19:31:28.180Z,101636.38
2022-10-17T19:34:30.815Z,101603.13
2022-10-17T19:37:34.349Z,101626.50
2022-10-17T19:40:40.797Z,101623.75
2022-10-17T19:43:44.238Z,101633.72
2022-10-17T19:46:47.115Z,101629.22
2022-10-17T19:49:50.265Z,101628.34
2022-10-17T19:52:52.859Z,101621.13
2022-10-17T19:55:56.735Z,101621.13
2022-10-17T19:58:59.432Z,101618.47
2022-10-17T20:02:02.199Z,101623.00
2022-10-17T20:05:21.671Z,101625.66
2022-10-17T20:11:33.881Z,101613.16
2022-10-17T20:14:40.829Z,101626.72
2022-10-17T20:17:43.929Z,101624.94
2022-10-17T20:20:46.538Z,101619.53
2022-10-17T20:23:49.324Z,101622.22
2022-10-17T20:26:51.778Z,101625.84
2022-10-17T20:29:54.521Z,101620.44
2022-10-17T20:32:56.998Z,101618.66
2022-10-17T20:35:59.759Z,101624.97
2022-10-17T20:39:02.350Z,101627.75
2022-10-17T20:42:05.040Z,101616.03
2022-10-17T20:45:07.816Z,101627.78
2022-10-17T20:48:15.575Z,101635.94
2022-10-17T20:51:18.324Z,101634.13
2022-10-17T20:54:22.556Z,101632.34
2022-10-17T20:57:25.018Z,101631.44
2022-10-17T21:00:27.732Z,101634.13
2022-10-17T21:03:30.221Z,101627.84
2022-10-17T21:06:32.958Z,101608.03
2022-10-17T21:09:35.798Z,101633.25
2022-10-17T21:12:53.343Z,101630.56
2022-10-17T21:15:56.177Z,101624.28
2022-10-17T21:18:59.528Z,101632.44
2022-10-17T21:22:02.044Z,101629.72
2022-10-17T21:25:05.016Z,101626.13
2022-10-17T21:28:07.675Z,101632.44
2022-10-17T21:31:17.453Z,101633.31
2022-10-17T21:34:22.049Z,101627.03
2022-10-17T21:37:24.733Z,101626.16
2022-10-17T21:40:27.195Z,101631.56
2022-10-17T21:43:29.959Z,101629.72
2022-10-17T21:46:32.593Z,101627.88
2022-10-17T21:49:35.348Z,101625.19
2022-10-17T21:52:37.828Z,101605.44
2022-10-17T21:55:40.563Z,101622.53
2022-10-17T21:58:43.662Z,101616.22
2022-10-17T22:01:46.548Z,101619.84
2022-10-17T22:04:49.307Z,101614.44
2022-10-17T22:07:51.744Z,101612.66
2022-10-17T22:10:55.193Z,101615.38
2022-10-17T22:14:00.195Z,101619.87
2022-10-17T22:17:02.923Z,101616.28
2022-10-17T22:20:05.792Z,101615.41
2022-10-17T22:23:10.058Z,101612.72
2022-10-17T22:26:12.775Z,101612.72
2022-10-17T22:29:15.576Z,101619.91
2022-10-17T22:32:21.525Z,101619.91
2022-10-17T22:35:25.339Z,101617.22
2022-10-17T22:38:28.360Z,101612.72
2022-10-17T22:41:31.062Z,101615.41
2022-10-17T22:44:33.484Z,101617.22
2022-10-17T22:47:36.219Z,101611.81
2022-10-17T22:50:41.718Z,101619.91
2022-10-17T22:53:44.580Z,101613.59
2022-10-17T22:56:47.006Z,101616.28
2022-10-17T22:59:49.736Z,101620.81
2022-10-17T23:02:55.796Z,101616.28
2022-10-17T23:05:59.080Z,101618.09
2022-10-17T23:09:01.519Z,101611.78
2022-10-17T23:12:04.602Z,101617.13
2022-10-17T23:15:07.507Z,101621.59
2022-10-17T23:18:10.231Z,101620.69
2022-10-17T23:21:12.942Z,101607.16
2022-10-17T23:24:15.734Z,101609.84
2022-10-17T23:27:18.157Z,101602.66
2022-10-17T23:30:22.206Z,101607.13
2022-10-17T23:33:24.928Z,101605.28
2022-10-17T23:36:27.783Z,101600.75
2022-10-17T23:39:30.225Z,101601.66
2022-10-17T23:42:33.331Z,101593.56
2022-10-17T23:45:37.189Z,101590.84
2022-10-17T23:48:40.271Z,101590.84
2022-10-17T23:51:42.767Z,101591.72
2022-10-17T23:54:45.576Z,101587.19
2022-10-17T23:57:48.040Z,101588.97
